Time,TemperatureF,DewpointF,PressureIn,WindDirection,WindDirectionDegrees,WindSpeedMPH,WindSpeedGustMPH,Humidity,HourlyPrecipIn,Conditions,Clouds,dailyrainin,SolarRadiationWatts/m^2,SoftwareType,DateUTC
2013-02-06 00:06:00,50.3,45.0,29.92,WSW,242,10.0,12.0,82,0.00,,,0.00,0,Wunderground v.1.15,2013-02-05 23:06:00,
2013-02-06 00:12:00,50.1,44.8,29.92,SW,232,11.0,15.0,82,0.00,,,0.00,0,Wunderground v.1.15,2013-02-05 23:12:00,
2013-02-06 00:20:00,50.0,45.0,29.92,WSW,240,10.0,12.0,83,0.00,,,0.00,0,Wunderground v.1.15,2013-02-05 23:20:00,
2013-02-06 00:26:00,49.9,44.9,29.92,WSW,238,9.0,12.0,83,0.00,,,0.00,0,Wunderground v.1.15,2013-02-05 23:26:00,
2013-02-06 00:32:00,49.9,44.9,29.92,WSW,252,7.0,9.0,83,0.00,,,0.00,0,Wunderground v.1.15,2013-02-05 23:32:00,
2013-02-06 00:39:00,49.9,44.9,29.92,WSW,248,7.0,9.0,83,0.00,,,0.00,0,Wunderground v.1.15,2013-02-05 23:39:00,
2013-02-06 00:46:00,49.8,44.8,29.92,WSW,248,6.0,7.0,83,0.00,,,0.00,0,Wunderground v.1.15,2013-02-05 23:46:00,
2013-02-06 00:52:00,50.0,44.7,29.91,WSW,248,4.0,4.0,82,0.00,,,0.00,0,Wunderground v.1.15,2013-02-05 23:52:00,
2013-02-06 01:00:00,50.2,44.6,29.92,WSW,248,1.0,1.0,81,0.00,,,0.00,0,Wunderground v.1.15,2013-02-06 00:00:00,
2013-02-06 01:06:00,50.1,44.5,29.91,WSW,248,0.0,1.0,81,0.00,,,0.00,0,Wunderground v.1.15,2013-02-06 00:06:00,
2013-02-06 01:12:00,49.7,44.1,29.91,WSW,248,0.0,0.0,81,0.00,,,0.00,0,Wunderground v.1.15,2013-02-06 00:12:00,
2013-02-06 01:18:00,49.4,43.8,29.91,WSW,248,0.0,0.0,81,0.00,,,0.00,0,Wunderground v.1.15,2013-02-06 00:18:00,
2013-02-06 01:24:00,49.3,43.7,29.90,WSW,248,0.0,0.0,81,0.00,,,0.00,0,Wunderground v.1.15,2013-02-06 00:24:00,
2013-02-06 01:30:00,49.1,43.5,29.90,WSW,248,1.0,2.0,81,0.00,,,0.00,0,Wunderground v.1.15,2013-02-06 00:30:00,
2013-02-06 01:36:00,49.0,43.4,29.90,WSW,248,2.0,3.0,81,0.00,,,0.00,0,Wunderground v.1.15,2013-02-06 00:36:00,
2013-02-06 01:42:00,48.7,43.1,29.90,WSW,248,2.0,3.0,81,0.00,,,0.00,0,Wunderground v.1.15,2013-02-06 00:42:00,
2013-02-06 01:48:00,48.7,43.5,29.89,WSW,248,1.0,3.0,82,0.00,,,0.00,0,Wunderground v.1.15,2013-02-06 00:48:00,
2013-02-06 01:58:00,49.4,43.8,29.88,WSW,248,0.0,3.0,81,0.00,,,0.00,0,Wunderground v.1.15,2013-02-06 00:58:00,
2013-02-06 02:06:00,49.5,43.6,29.89,WSW,248,1.0,2.0,80,0.00,,,0.00,0,Wunderground v.1.15,2013-02-06 01:06:00,
2013-02-06 02:12:00,49.4,43.5,29.88,WSW,248,1.0,2.0,80,0.00,,,0.00,0,Wunderground v.1.15,2013-02-06 01:12:00,
2013-02-06 02:18:00,49.3,43.4,29.88,WSW,248,1.0,2.0,80,0.00,,,0.00,0,Wunderground v.1.15,2013-02-06 01:18:00,
2013-02-06 02:24:00,49.2,43.3,29.88,WSW,248,1.0,2.0,80,0.00,,,0.00,0,Wunderground v.1.15,2013-02-06 01:24:00,
2013-02-06 02:30:00,49.2,43.3,29.89,WSW,248,1.0,2.0,80,0.00,,,0.00,0,Wunderground v.1.15,2013-02-06 01:30:00,
2013-02-06 02:36:00,49.1,43.2,29.88,WSW,248,1.0,3.0,80,0.00,,,0.00,0,Wunderground v.1.15,2013-02-06 01:36:00,
2013-02-06 02:42:00,49.2,43.3,29.88,SW,225,3.0,5.0,80,0.00,,,0.00,0,Wunderground v.1.15,2013-02-06 01:42:00,
2013-02-06 02:49:00,50.2,43.6,29.88,SW,223,4.0,5.0,78,0.00,,,0.00,0,Wunderground v.1.15,2013-02-06 01:49:00,
2013-02-06 02:54:00,51.1,43.8,29.87,SE,143,4.0,8.0,76,0.00,,,0.00,0,Wunderground v.1.15,2013-02-06 01:54:00,
2013-02-06 03:00:00,51.5,43.8,29.87,SE,136,5.0,5.0,75,0.00,,,0.00,0,Wunderground v.1.15,2013-02-06 02:00:00,
2013-02-06 03:06:00,52.0,44.7,29.89,North,360,5.0,10.0,76,0.00,,,0.00,0,Wunderground v.1.15,2013-02-06 02:06:00,
2013-02-06 03:12:00,53.0,45.3,29.88,NNW,329,5.0,10.0,75,0.00,,,0.00,0,Wunderground v.1.15,2013-02-06 02:12:00,
2013-02-06 03:18:00,54.5,46.0,29.88,ENE,60,6.0,10.0,73,0.00,,,0.00,0,Wunderground v.1.15,2013-02-06 02:18:00,
2013-02-06 03:24:00,54.4,45.6,29.87,NE,46,8.0,18.0,72,0.00,,,0.00,0,Wunderground v.1.15,2013-02-06 02:24:00,
2013-02-06 03:30:00,54.4,45.2,29.87,NW,304,9.0,9.0,71,0.00,,,0.00,0,Wunderground v.1.15,2013-02-06 02:30:00,
2013-02-06 03:36:00,54.5,45.3,29.87,ENE,57,9.0,11.0,71,0.00,,,0.00,0,Wunderground v.1.15,2013-02-06 02:36:00,
2013-02-06 03:42:00,54.0,44.4,29.87,NNW,342,13.0,14.0,70,0.00,,,0.00,0,Wunderground v.1.15,2013-02-06 02:42:00,
2013-02-06 03:50:00,53.0,43.1,29.87,NE,41,11.0,11.0,69,0.00,,,0.00,0,Wunderground v.1.15,2013-02-06 02:50:00,
2013-02-06 03:56:00,52.6,42.7,29.86,NW,325,11.0,21.0,69,0.00,,,0.00,0,Wunderground v.1.15,2013-02-06 02:56:00,
2013-02-06 04:02:00,52.5,42.2,29.85,North,349,13.0,20.0,68,0.00,,,0.00,0,Wunderground v.1.15,2013-02-06 03:02:00,
2013-02-06 04:08:00,52.8,41.4,29.84,ENE,72,16.0,20.0,65,0.00,,,0.00,0,Wunderground v.1.15,2013-02-06 03:08:00,
2013-02-06 04:14:00,53.2,40.9,29.83,NNE,24,16.0,19.0,63,0.00,,,0.00,0,Wunderground v.1.15,2013-02-06 03:14:00,
2013-02-06 04:20:00,53.3,40.2,29.84,NNW,331,12.0,23.0,61,0.00,,,0.00,0,Wunderground v.1.15,2013-02-06 03:20:00,
2013-02-06 04:26:00,53.7,38.8,29.83,NNE,25,14.0,23.0,57,0.00,,,0.00,0,Wunderground v.1.15,2013-02-06 03:26:00,
2013-02-06 04:32:00,53.8,37.1,29.83,NE,40,15.0,16.0,53,0.00,,,0.00,0,Wunderground v.1.15,2013-02-06 03:32:00,
2013-02-06 04:38:00,53.9,36.7,29.84,WNW,298,16.0,20.0,52,0.00,,,0.00,0,Wunderground v.1.15,2013-02-06 03:38:00,
2013-02-06 04:44:00,53.6,35.9,29.83,NE,36,14.0,17.0,51,0.00,,,0.00,0,Wunderground v.1.15,2013-02-06 03:44:00,
2013-02-06 04:50:00,53.5,35.3,29.83,NNE,33,13.0,13.0,50,0.00,,,0.00,0,Wunderground v.1.15,2013-02-06 03:50:00,
2013-02-06 04:56:00,53.5,35.8,29.83,North,355,12.0,14.0,51,0.00,,,0.00,0,Wunderground v.1.15,2013-02-06 03:56:00,
2013-02-06 05:02:00,53.5,35.3,29.83,NNW,345,12.0,18.0,50,0.00,,,0.00,0,Wunderground v.1.15,2013-02-06 04:02:00,
2013-02-06 05:08:00,53.9,33.6,29.82,NNW,336,13.0,20.0,46,0.00,,,0.00,0,Wunderground v.1.15,2013-02-06 04:08:00,
2013-02-06 05:14:00,54.2,33.9,29.82,NNW,345,15.0,16.0,46,0.00,,,0.00,0,Wunderground v.1.15,2013-02-06 04:14:00,
2013-02-06 05:20:00,54.3,33.4,29.83,North,350,15.0,16.0,45,0.00,,,0.00,0,Wunderground v.1.15,2013-02-06 04:20:00,
2013-02-06 05:26:00,54.1,33.8,29.82,NNE,33,14.0,16.0,46,0.00,,,0.00,0,Wunderground v.1.15,2013-02-06 04:26:00,
2013-02-06 05:32:00,53.9,35.7,29.84,NNW,334,14.0,14.0,50,0.00,,,0.00,0,Wunderground v.1.15,2013-02-06 04:32:00,
2013-02-06 05:39:00,53.3,38.4,29.83,North,349,16.0,22.0,57,0.00,,,0.00,0,Wunderground v.1.15,2013-02-06 04:39:00,
2013-02-06 05:44:00,52.9,38.1,29.83,North,355,19.0,32.0,57,0.00,,,0.00,0,Wunderground v.1.15,2013-02-06 04:44:00,
2013-02-06 05:50:00,52.4,37.6,29.83,NNW,333,18.0,21.0,57,0.00,,,0.00,0,Wunderground v.1.15,2013-02-06 04:50:00,
2013-02-06 05:56:00,52.1,37.8,29.83,NNE,14,17.0,26.0,58,0.00,,,0.00,0,Wunderground v.1.15,2013-02-06 04:56:00,
2013-02-06 06:00:00,52.1,37.3,29.83,NNE,21,19.0,19.0,57,0.00,,,0.00,0,Wunderground v.1.15,2013-02-06 05:00:00,
2013-02-06 06:06:00,51.8,37.9,29.83,NE,41,19.0,21.0,59,0.00,,,0.00,0,Wunderground v.1.15,2013-02-06 05:06:00,
2013-02-06 06:10:00,51.6,37.7,29.83,North,349,18.0,27.0,59,0.00,,,0.00,0,Wunderground v.1.15,2013-02-06 05:10:00,
2013-02-06 06:12:00,51.5,37.2,29.83,NW,323,19.0,27.0,58,0.00,,,0.00,0,Wunderground v.1.15,2013-02-06 05:12:00,
2013-02-06 06:19:00,51.1,35.9,29.83,NNW,340,19.0,27.0,56,0.00,,,0.00,0,Wunderground v.1.15,2013-02-06 05:19:00,
2013-02-06 06:24:00,51.0,35.4,29.83,NNW,329,19.0,19.0,55,0.00,,,0.00,0,Wunderground v.1.15,2013-02-06 05:24:00,
2013-02-06 06:30:00,50.7,36.5,29.83,North,350,18.0,19.0,58,0.00,,,0.00,0,Wunderground v.1.15,2013-02-06 05:30:00,
2013-02-06 06:36:00,50.5,36.3,29.83,NNE,17,17.0,24.0,58,0.00,,,0.00,0,Wunderground v.1.15,2013-02-06 05:36:00,
2013-02-06 06:42:00,50.2,36.8,29.82,NW,321,13.0,14.0,60,0.00,,,0.00,0,Wunderground v.1.15,2013-02-06 05:42:00,
2013-02-06 06:48:00,49.7,35.9,29.83,NNW,340,12.0,16.0,59,0.00,,,0.00,0,Wunderground v.1.15,2013-02-06 05:48:00,
2013-02-06 06:54:00,49.7,36.4,29.82,North,5,14.0,17.0,60,0.00,,,0.00,0,Wunderground v.1.15,2013-02-06 05:54:00,
2013-02-06 07:00:00,49.6,37.1,29.83,NNE,22,13.0,16.0,62,0.00,,,0.00,0,Wunderground v.1.15,2013-02-06 06:00:00,
2013-02-06 07:06:00,49.5,37.4,29.82,NNW,344,14.0,22.0,63,0.00,,,0.00,0,Wunderground v.1.15,2013-02-06 06:06:00,
2013-02-06 07:12:00,49.5,37.0,29.82,North,350,17.0,22.0,62,0.00,,,0.00,0,Wunderground v.1.15,2013-02-06 06:12:00,
2013-02-06 07:19:00,49.5,36.6,29.82,NNW,327,17.0,22.0,61,0.00,,,0.00,0,Wunderground v.1.15,2013-02-06 06:19:00,
2013-02-06 07:26:00,49.5,36.6,29.83,North,10,15.0,16.0,61,0.00,,,0.00,0,Wunderground v.1.15,2013-02-06 06:26:00,
2013-02-06 07:32:00,49.3,36.8,29.83,NNW,345,12.0,12.0,62,0.00,,,0.00,0,Wunderground v.1.15,2013-02-06 06:32:00,
2013-02-06 07:39:00,49.3,37.2,29.83,NNE,14,12.0,24.0,63,0.00,,,0.00,0,Wunderground v.1.15,2013-02-06 06:39:00,
2013-02-06 07:44:00,49.2,37.1,29.84,NNW,346,13.0,19.0,63,0.00,,,0.00,0,Wunderground v.1.15,2013-02-06 06:44:00,
2013-02-06 07:50:00,49.1,37.0,29.84,North,360,11.0,11.0,63,0.00,,,0.00,0,Wunderground v.1.15,2013-02-06 06:50:00,
2013-02-06 07:56:00,48.9,36.9,29.84,NNW,342,10.0,12.0,63,0.00,,,0.00,0,Wunderground v.1.15,2013-02-06 06:56:00,
2013-02-06 08:02:00,48.8,36.8,29.85,ENE,72,7.0,8.0,63,0.00,,,0.00,5,Wunderground v.1.15,2013-02-06 07:02:00,
2013-02-06 08:10:00,48.7,37.1,29.86,NNE,19,6.0,6.0,64,0.00,,,0.00,5,Wunderground v.1.15,2013-02-06 07:10:00,
2013-02-06 08:16:00,48.7,37.5,29.87,ENE,61,4.0,6.0,65,0.00,,,0.00,5,Wunderground v.1.15,2013-02-06 07:16:00,
2013-02-06 08:22:00,48.7,37.5,29.87,ENE,75,4.0,5.0,65,0.00,,,0.00,7,Wunderground v.1.15,2013-02-06 07:22:00,
2013-02-06 08:29:00,48.8,37.2,29.87,SSE,153,3.0,5.0,64,0.00,,,0.00,19,Wunderground v.1.15,2013-02-06 07:29:00,
2013-02-06 08:34:00,48.9,37.3,29.88,SW,232,2.0,7.0,64,0.00,,,0.00,14,Wunderground v.1.15,2013-02-06 07:34:00,
2013-02-06 08:40:00,48.9,37.3,29.88,SW,235,2.0,2.0,64,0.00,,,0.00,30,Wunderground v.1.15,2013-02-06 07:40:00,
2013-02-06 08:46:00,49.2,37.5,29.88,SW,234,1.0,2.0,64,0.00,,,0.00,125,Wunderground v.1.15,2013-02-06 07:46:00,
2013-02-06 08:52:00,49.7,37.6,29.87,NW,311,4.0,8.0,63,0.00,,,0.00,209,Wunderground v.1.15,2013-02-06 07:52:00,
2013-02-06 08:58:00,50.3,38.2,29.87,NE,38,8.0,9.0,63,0.00,,,0.00,223,Wunderground v.1.15,2013-02-06 07:58:00,
2013-02-06 09:06:00,50.6,38.1,29.87,NNW,336,8.0,9.0,62,0.00,,,0.00,199,Wunderground v.1.15,2013-02-06 08:06:00,
2013-02-06 09:14:00,50.5,38.0,29.85,North,5,11.0,12.0,62,0.00,,,0.00,216,Wunderground v.1.15,2013-02-06 08:14:00,
2013-02-06 09:20:00,50.5,38.4,29.85,NNW,341,12.0,14.0,63,0.00,,,0.00,232,Wunderground v.1.15,2013-02-06 08:20:00,
2013-02-06 09:26:00,50.4,38.3,29.85,NNW,345,13.0,18.0,63,0.00,,,0.00,264,Wunderground v.1.15,2013-02-06 08:26:00,
2013-02-06 09:32:00,50.6,38.5,29.85,North,355,14.0,18.0,63,0.00,,,0.00,279,Wunderground v.1.15,2013-02-06 08:32:00,
2013-02-06 09:38:00,50.9,38.7,29.85,NNW,348,15.0,18.0,63,0.00,,,0.00,295,Wunderground v.1.15,2013-02-06 08:38:00,
2013-02-06 09:46:00,51.0,38.8,29.85,NNW,345,14.0,14.0,63,0.00,,,0.00,316,Wunderground v.1.15,2013-02-06 08:46:00,
2013-02-06 09:52:00,51.2,38.6,29.85,North,355,14.0,19.0,62,0.00,,,0.00,336,Wunderground v.1.15,2013-02-06 08:52:00,
2013-02-06 10:00:00,51.5,38.5,29.85,NW,309,14.0,19.0,61,0.00,,,0.00,364,Wunderground v.1.15,2013-02-06 09:00:00,
2013-02-06 10:08:00,52.0,39.0,29.86,NNE,12,12.0,19.0,61,0.00,,,0.00,378,Wunderground v.1.15,2013-02-06 09:08:00,
2013-02-06 10:16:00,52.3,38.4,29.86,North,360,11.0,12.0,59,0.00,,,0.00,408,Wunderground v.1.15,2013-02-06 09:16:00,
2013-02-06 10:22:00,52.3,38.8,29.86,NNW,336,11.0,14.0,60,0.00,,,0.00,417,Wunderground v.1.15,2013-02-06 09:22:00,
2013-02-06 10:28:00,51.9,38.0,29.86,North,350,11.0,14.0,59,0.00,,,0.00,70,Wunderground v.1.15,2013-02-06 09:28:00,
2013-02-06 10:36:00,51.5,38.1,29.86,North,360,10.0,10.0,60,0.00,,,0.00,83,Wunderground v.1.15,2013-02-06 09:36:00,
2013-02-06 10:42:00,51.0,37.2,29.87,NNW,338,11.0,19.0,59,0.00,,,0.00,485,Wunderground v.1.15,2013-02-06 09:42:00,
2013-02-06 10:50:00,50.7,37.7,29.87,NNW,340,13.0,13.0,61,0.00,,,0.00,77,Wunderground v.1.15,2013-02-06 09:50:00,
2013-02-06 10:56:00,50.4,37.9,29.87,NW,309,11.0,13.0,62,0.00,,,0.00,162,Wunderground v.1.15,2013-02-06 09:56:00,
2013-02-06 11:02:00,50.6,37.2,29.88,NNE,17,9.0,10.0,60,0.00,,,0.00,76,Wunderground v.1.15,2013-02-06 10:02:00,
2013-02-06 11:08:00,50.6,37.6,29.88,NNW,344,9.0,10.0,61,0.00,,,0.00,95,Wunderground v.1.15,2013-02-06 10:08:00,
2013-02-06 11:16:00,51.4,38.4,29.88,NW,326,5.0,9.0,61,0.00,,,0.00,113,Wunderground v.1.15,2013-02-06 10:16:00,
2013-02-06 11:22:00,51.4,38.4,29.87,NE,39,7.0,7.0,61,0.00,,,0.00,93,Wunderground v.1.15,2013-02-06 10:22:00,
2013-02-06 11:28:00,50.8,37.4,29.88,NNE,14,7.0,22.0,60,0.00,,,0.00,109,Wunderground v.1.15,2013-02-06 10:28:00,
2013-02-06 11:34:00,50.8,37.4,29.87,North,5,10.0,11.0,60,0.00,,,0.00,77,Wunderground v.1.15,2013-02-06 10:34:00,
2013-02-06 11:40:00,50.7,37.7,29.87,North,5,9.0,10.0,61,0.00,,,0.00,83,Wunderground v.1.15,2013-02-06 10:40:00,
2013-02-06 11:46:00,50.8,37.4,29.87,NW,323,12.0,13.0,60,0.00,,,0.00,111,Wunderground v.1.15,2013-02-06 10:46:00,
2013-02-06 11:52:00,51.6,37.3,29.87,NNW,348,12.0,12.0,58,0.00,,,0.00,104,Wunderground v.1.15,2013-02-06 10:52:00,
2013-02-06 11:58:00,51.6,37.7,29.86,NNW,337,10.0,12.0,59,0.00,,,0.00,165,Wunderground v.1.15,2013-02-06 10:58:00,
2013-02-06 12:04:00,51.5,38.5,29.86,North,11,8.0,9.0,61,0.00,,,0.00,65,Wunderground v.1.15,2013-02-06 11:04:00,
2013-02-06 12:10:00,52.0,38.1,29.86,NNE,14,7.0,7.0,59,0.00,,,0.00,638,Wunderground v.1.15,2013-02-06 11:10:00,
2013-02-06 12:16:00,53.2,37.9,29.86,ESE,104,6.0,7.0,56,0.00,,,0.00,622,Wunderground v.1.15,2013-02-06 11:16:00,
2013-02-06 12:22:00,53.7,38.4,29.85,NNE,18,7.0,10.0,56,0.00,,,0.00,580,Wunderground v.1.15,2013-02-06 11:22:00,
2013-02-06 12:28:00,53.5,37.7,29.85,NNW,346,8.0,10.0,55,0.00,,,0.00,661,Wunderground v.1.15,2013-02-06 11:28:00,
2013-02-06 12:38:00,54.4,38.1,29.84,NW,325,6.0,13.0,54,0.00,,,0.00,643,Wunderground v.1.15,2013-02-06 11:38:00,
2013-02-06 12:44:00,54.3,37.5,29.83,NE,55,9.0,9.0,53,0.00,,,0.00,645,Wunderground v.1.15,2013-02-06 11:44:00,
2013-02-06 12:50:00,54.1,38.7,29.82,WNW,300,10.0,10.0,56,0.00,,,0.00,650,Wunderground v.1.15,2013-02-06 11:50:00,
2013-02-06 12:56:00,54.3,38.0,29.82,WNW,302,11.0,11.0,54,0.00,,,0.00,636,Wunderground v.1.15,2013-02-06 11:56:00,
2013-02-06 13:02:00,54.2,37.9,29.82,ENE,72,11.0,11.0,54,0.00,,,0.00,647,Wunderground v.1.15,2013-02-06 12:02:00,
2013-02-06 13:08:00,54.7,37.9,29.82,NW,326,9.0,21.0,53,0.00,,,0.00,656,Wunderground v.1.15,2013-02-06 12:08:00,
2013-02-06 13:16:00,54.6,38.3,29.82,North,355,14.0,17.0,54,0.00,,,0.00,656,Wunderground v.1.15,2013-02-06 12:16:00,
2013-02-06 13:22:00,54.5,38.7,29.81,NNE,15,15.0,15.0,55,0.00,,,0.00,654,Wunderground v.1.15,2013-02-06 12:22:00,
2013-02-06 13:29:00,54.5,38.2,29.81,NNE,32,15.0,17.0,54,0.00,,,0.00,650,Wunderground v.1.15,2013-02-06 12:29:00,
2013-02-06 13:36:00,54.5,37.7,29.81,NW,322,14.0,14.0,53,0.00,,,0.00,642,Wunderground v.1.15,2013-02-06 12:36:00,
2013-02-06 13:42:00,53.9,37.1,29.81,NW,306,15.0,21.0,53,0.00,,,0.00,643,Wunderground v.1.15,2013-02-06 12:42:00,
2013-02-06 13:49:00,53.4,37.2,29.81,NNW,348,16.0,21.0,54,0.00,,,0.00,533,Wunderground v.1.15,2013-02-06 12:49:00,
2013-02-06 13:56:00,53.2,37.0,29.82,NW,311,15.0,22.0,54,0.00,,,0.00,475,Wunderground v.1.15,2013-02-06 12:56:00,
2013-02-06 14:02:00,53.2,37.4,29.82,NNW,346,15.0,21.0,55,0.00,,,0.00,571,Wunderground v.1.15,2013-02-06 13:02:00,
2013-02-06 14:08:00,53.3,38.0,29.82,NNW,336,15.0,21.0,56,0.00,,,0.00,608,Wunderground v.1.15,2013-02-06 13:08:00,
2013-02-06 14:14:00,53.7,37.4,29.82,WNW,295,13.0,19.0,54,0.00,,,0.00,649,Wunderground v.1.15,2013-02-06 13:14:00,
2013-02-06 14:20:00,54.0,38.2,29.82,NW,309,11.0,11.0,55,0.00,,,0.00,668,Wunderground v.1.15,2013-02-06 13:20:00,
2013-02-06 14:26:00,54.4,38.6,29.82,WNW,300,8.0,11.0,55,0.00,,,0.00,192,Wunderground v.1.15,2013-02-06 13:26:00,
2013-02-06 14:32:00,53.8,38.5,29.82,NW,320,7.0,8.0,56,0.00,,,0.00,209,Wunderground v.1.15,2013-02-06 13:32:00,
2013-02-06 14:39:00,53.4,37.6,29.81,WNW,298,7.0,13.0,55,0.00,,,0.00,135,Wunderground v.1.15,2013-02-06 13:39:00,
2013-02-06 14:44:00,53.6,37.3,29.81,WNW,301,7.0,9.0,54,0.00,,,0.00,160,Wunderground v.1.15,2013-02-06 13:44:00,
2013-02-06 14:50:00,52.8,36.6,29.80,NW,325,8.0,8.0,54,0.00,,,0.00,225,Wunderground v.1.15,2013-02-06 13:50:00,
2013-02-06 14:56:00,52.6,36.4,29.80,NW,311,12.0,13.0,54,0.00,,,0.00,128,Wunderground v.1.15,2013-02-06 13:56:00,
2013-02-06 15:02:00,52.2,36.5,29.80,NNW,334,13.0,13.0,55,0.00,,,0.00,128,Wunderground v.1.15,2013-02-06 14:02:00,
2013-02-06 15:08:00,52.3,36.6,29.80,WNW,298,10.0,13.0,55,0.00,,,0.00,132,Wunderground v.1.15,2013-02-06 14:08:00,
2013-02-06 15:16:00,52.6,36.4,29.79,North,355,9.0,12.0,54,0.00,,,0.00,504,Wunderground v.1.15,2013-02-06 14:16:00,
2013-02-06 15:22:00,53.5,36.8,29.78,NW,323,10.0,15.0,53,0.00,,,0.00,413,Wunderground v.1.15,2013-02-06 14:22:00,
2013-02-06 15:30:00,53.6,36.4,29.77,ENE,67,13.0,15.0,52,0.00,,,0.00,142,Wunderground v.1.15,2013-02-06 14:30:00,
2013-02-06 15:36:00,53.2,36.5,29.77,NW,304,14.0,15.0,53,0.00,,,0.00,142,Wunderground v.1.15,2013-02-06 14:36:00,
2013-02-06 15:42:00,53.9,36.7,29.77,NNW,331,14.0,25.0,52,0.00,,,0.00,494,Wunderground v.1.15,2013-02-06 14:42:00,
2013-02-06 15:49:00,54.8,37.5,29.76,North,360,15.0,25.0,52,0.00,,,0.00,483,Wunderground v.1.15,2013-02-06 14:49:00,
2013-02-06 15:56:00,55.3,37.0,29.76,NE,34,14.0,18.0,50,0.00,,,0.00,475,Wunderground v.1.15,2013-02-06 14:56:00,
2013-02-06 16:02:00,55.4,37.1,29.75,NNW,329,15.0,20.0,50,0.00,,,0.00,466,Wunderground v.1.15,2013-02-06 15:02:00,
2013-02-06 16:09:00,55.0,36.7,29.74,NNW,340,15.0,20.0,50,0.00,,,0.00,292,Wunderground v.1.15,2013-02-06 15:09:00,
2013-02-06 16:16:00,54.9,36.1,29.75,NNW,333,19.0,19.0,49,0.00,,,0.00,455,Wunderground v.1.15,2013-02-06 15:16:00,
2013-02-06 16:22:00,55.1,36.3,29.75,NNW,342,18.0,19.0,49,0.00,,,0.00,253,Wunderground v.1.15,2013-02-06 15:22:00,
2013-02-06 16:28:00,54.3,36.5,29.75,NW,325,19.0,33.0,51,0.00,,,0.00,200,Wunderground v.1.15,2013-02-06 15:28:00,
2013-02-06 16:34:00,54.5,36.7,29.76,NNW,345,20.0,24.0,51,0.00,,,0.00,272,Wunderground v.1.15,2013-02-06 15:34:00,
2013-02-06 16:40:00,54.2,35.9,29.76,NW,319,17.0,17.0,50,0.00,,,0.00,271,Wunderground v.1.15,2013-02-06 15:40:00,
2013-02-06 16:46:00,54.1,35.9,29.75,NW,314,17.0,24.0,50,0.00,,,0.00,139,Wunderground v.1.15,2013-02-06 15:46:00,
2013-02-06 16:52:00,53.6,35.9,29.75,NNW,337,19.0,21.0,51,0.00,,,0.00,63,Wunderground v.1.15,2013-02-06 15:52:00,
2013-02-06 17:00:00,53.0,37.3,29.74,NNW,344,21.0,21.0,55,0.00,,,0.00,70,Wunderground v.1.15,2013-02-06 16:00:00,
2013-02-06 17:06:00,52.8,37.1,29.74,North,360,22.0,24.0,55,0.00,,,0.00,79,Wunderground v.1.15,2013-02-06 16:06:00,
2013-02-06 17:12:00,52.8,38.0,29.74,North,349,21.0,31.0,57,0.00,,,0.00,84,Wunderground v.1.15,2013-02-06 16:12:00,
2013-02-06 17:18:00,52.8,37.1,29.73,NW,317,19.0,31.0,55,0.00,,,0.00,56,Wunderground v.1.15,2013-02-06 16:18:00,
2013-02-06 17:24:00,53.0,36.3,29.71,North,360,19.0,34.0,53,0.00,,,0.00,35,Wunderground v.1.15,2013-02-06 16:24:00,
2013-02-06 17:30:00,53.0,35.3,29.72,NW,308,21.0,25.0,51,0.00,,,0.00,28,Wunderground v.1.15,2013-02-06 16:30:00,
2013-02-06 17:36:00,52.9,35.7,29.73,NNW,333,21.0,37.0,52,0.00,,,0.00,30,Wunderground v.1.15,2013-02-06 16:36:00,
2013-02-06 17:42:00,53.0,35.3,29.73,North,10,21.0,27.0,51,0.00,,,0.00,46,Wunderground v.1.15,2013-02-06 16:42:00,
2013-02-06 17:49:00,52.9,35.2,29.73,NNW,337,22.0,27.0,51,0.00,,,0.00,21,Wunderground v.1.15,2013-02-06 16:49:00,
2013-02-06 17:54:00,52.8,35.6,29.73,WNW,290,22.0,31.0,52,0.00,,,0.00,16,Wunderground v.1.15,2013-02-06 16:54:00,
2013-02-06 18:00:00,52.8,36.1,29.74,NNW,340,23.0,23.0,53,0.00,,,0.00,11,Wunderground v.1.15,2013-02-06 17:00:00,
2013-02-06 18:06:00,52.1,38.6,29.75,NW,309,20.0,23.0,60,0.00,,,0.01,11,Wunderground v.1.15,2013-02-06 17:06:00,
2013-02-06 18:12:00,51.5,38.5,29.77,NNW,342,20.0,26.0,61,1.39,,,0.02,5,Wunderground v.1.15,2013-02-06 17:12:00,
2013-02-06 18:18:00,49.7,38.8,29.75,NNW,344,22.0,26.0,66,0.23,,,0.05,0,Wunderground v.1.15,2013-02-06 17:18:00,
2013-02-06 18:24:00,49.6,38.7,29.75,NW,321,17.0,20.0,66,0.09,,,0.06,0,Wunderground v.1.15,2013-02-06 17:24:00,
2013-02-06 18:30:00,50.3,38.6,29.75,North,360,19.0,19.0,64,0.08,,,0.06,0,Wunderground v.1.15,2013-02-06 17:30:00,
2013-02-06 18:36:00,50.7,38.1,29.74,WNW,299,20.0,24.0,62,0.05,,,0.06,0,Wunderground v.1.15,2013-02-06 17:36:00,
2013-02-06 18:42:00,51.2,37.8,29.74,NNW,329,21.0,21.0,60,0.00,,,0.06,0,Wunderground v.1.15,2013-02-06 17:42:00,
2013-02-06 18:49:00,51.4,37.1,29.76,NNW,348,19.0,21.0,58,0.00,,,0.06,0,Wunderground v.1.15,2013-02-06 17:49:00,
2013-02-06 18:54:00,51.5,37.2,29.75,NNW,344,19.0,27.0,58,0.00,,,0.06,0,Wunderground v.1.15,2013-02-06 17:54:00,
2013-02-06 19:00:00,51.6,36.9,29.76,NNW,335,20.0,39.0,57,0.00,,,0.06,0,Wunderground v.1.15,2013-02-06 18:00:00,
2013-02-06 19:06:00,51.5,37.6,29.75,NNW,329,22.0,39.0,59,0.00,,,0.06,0,Wunderground v.1.15,2013-02-06 18:06:00,
2013-02-06 19:12:00,51.2,38.2,29.75,NNW,348,20.0,22.0,61,0.00,,,0.06,0,Wunderground v.1.15,2013-02-06 18:12:00,
2013-02-06 19:18:00,51.1,38.1,29.75,North,355,20.0,22.0,61,0.00,,,0.06,0,Wunderground v.1.15,2013-02-06 18:18:00,
2013-02-06 19:24:00,51.3,37.0,29.75,NNW,344,19.0,21.0,58,0.00,,,0.06,0,Wunderground v.1.15,2013-02-06 18:24:00,
2013-02-06 19:30:00,51.5,36.3,29.77,NW,305,21.0,21.0,56,0.00,,,0.06,0,Wunderground v.1.15,2013-02-06 18:30:00,
2013-02-06 19:36:00,51.5,35.9,29.76,NNW,338,20.0,21.0,55,0.00,,,0.06,0,Wunderground v.1.15,2013-02-06 18:36:00,
2013-02-06 19:42:00,51.0,36.3,29.75,NNW,344,19.0,19.0,57,0.00,,,0.06,0,Wunderground v.1.15,2013-02-06 18:42:00,
2013-02-06 19:48:00,50.9,36.2,29.75,North,355,19.0,32.0,57,0.00,,,0.06,0,Wunderground v.1.15,2013-02-06 18:48:00,
2013-02-06 19:56:00,51.3,36.6,29.75,NNE,13,23.0,28.0,57,0.00,,,0.06,0,Wunderground v.1.15,2013-02-06 18:56:00,
2013-02-06 20:02:00,51.3,36.1,29.74,NW,325,23.0,25.0,56,0.00,,,0.06,0,Wunderground v.1.15,2013-02-06 19:02:00,
2013-02-06 20:09:00,51.3,36.6,29.75,NNW,335,18.0,25.0,57,0.00,,,0.06,0,Wunderground v.1.15,2013-02-06 19:09:00,
2013-02-06 20:16:00,49.9,37.8,29.75,WNW,296,19.0,24.0,63,0.21,,,0.08,0,Wunderground v.1.15,2013-02-06 19:16:00,
2013-02-06 20:22:00,49.5,38.2,29.76,NW,322,21.0,26.0,65,0.21,,,0.10,0,Wunderground v.1.15,2013-02-06 19:22:00,
2013-02-06 20:28:00,49.8,37.7,29.76,NW,323,18.0,26.0,63,0.07,,,0.10,0,Wunderground v.1.15,2013-02-06 19:28:00,
2013-02-06 20:36:00,50.2,37.3,29.75,NNW,346,20.0,22.0,61,0.04,,,0.11,0,Wunderground v.1.15,2013-02-06 19:36:00,
2013-02-06 20:42:00,50.3,37.4,29.75,NW,321,21.0,22.0,61,0.04,,,0.11,0,Wunderground v.1.15,2013-02-06 19:42:00,
2013-02-06 20:50:00,50.0,37.5,29.75,NW,318,15.0,17.0,62,0.04,,,0.11,0,Wunderground v.1.15,2013-02-06 19:50:00,
2013-02-06 20:56:00,50.0,37.9,29.74,NNW,333,17.0,21.0,63,0.00,,,0.11,0,Wunderground v.1.15,2013-02-06 19:56:00,
2013-02-06 21:02:00,50.2,38.1,29.75,NW,321,19.0,27.0,63,0.00,,,0.11,0,Wunderground v.1.15,2013-02-06 20:02:00,
2013-02-06 21:09:00,50.1,38.0,29.75,WNW,296,17.0,27.0,63,0.00,,,0.11,0,Wunderground v.1.15,2013-02-06 20:09:00,
2013-02-06 21:14:00,50.1,38.0,29.75,NW,318,18.0,25.0,63,0.00,,,0.11,0,Wunderground v.1.15,2013-02-06 20:14:00,
2013-02-06 21:20:00,49.9,37.8,29.75,NNW,347,18.0,18.0,63,0.00,,,0.11,0,Wunderground v.1.15,2013-02-06 20:20:00,
2013-02-06 21:26:00,49.8,37.7,29.76,NNW,342,16.0,28.0,63,0.00,,,0.11,0,Wunderground v.1.15,2013-02-06 20:26:00,
2013-02-06 21:32:00,49.8,37.3,29.76,NW,317,14.0,16.0,62,0.00,,,0.11,0,Wunderground v.1.15,2013-02-06 20:32:00,
2013-02-06 21:38:00,49.7,37.2,29.77,NNW,348,13.0,16.0,62,0.00,,,0.11,0,Wunderground v.1.15,2013-02-06 20:38:00,
2013-02-06 21:44:00,49.7,37.6,29.77,North,349,10.0,13.0,63,0.00,,,0.11,0,Wunderground v.1.15,2013-02-06 20:44:00,
2013-02-06 21:50:00,49.8,37.3,29.78,NW,312,11.0,11.0,62,0.00,,,0.11,0,Wunderground v.1.15,2013-02-06 20:50:00,
2013-02-06 21:56:00,49.8,37.7,29.78,North,355,11.0,13.0,63,0.00,,,0.11,0,Wunderground v.1.15,2013-02-06 20:56:00,
2013-02-06 22:02:00,49.7,38.0,29.78,NW,324,9.0,11.0,64,0.00,,,0.11,0,Wunderground v.1.15,2013-02-06 21:02:00,
2013-02-06 22:08:00,49.8,37.7,29.78,WNW,301,10.0,16.0,63,0.00,,,0.11,0,Wunderground v.1.15,2013-02-06 21:08:00,
2013-02-06 22:16:00,49.7,38.0,29.78,NW,304,11.0,12.0,64,0.00,,,0.11,0,Wunderground v.1.15,2013-02-06 21:16:00,
2013-02-06 22:22:00,49.5,37.4,29.79,North,355,12.0,12.0,63,0.00,,,0.11,0,Wunderground v.1.15,2013-02-06 21:22:00,
2013-02-06 22:29:00,49.3,37.6,29.80,NNW,346,13.0,15.0,64,0.00,,,0.11,0,Wunderground v.1.15,2013-02-06 21:29:00,
2013-02-06 22:36:00,49.2,37.9,29.80,NNW,336,12.0,15.0,65,0.00,,,0.11,0,Wunderground v.1.15,2013-02-06 21:36:00,
2013-02-06 22:42:00,49.2,37.9,29.80,North,360,11.0,20.0,65,0.00,,,0.11,0,Wunderground v.1.15,2013-02-06 21:42:00,
2013-02-06 22:50:00,49.2,37.9,29.80,NNW,330,11.0,11.0,65,0.00,,,0.11,0,Wunderground v.1.15,2013-02-06 21:50:00,
2013-02-06 22:56:00,49.2,37.5,29.80,NNE,14,11.0,13.0,64,0.00,,,0.11,0,Wunderground v.1.15,2013-02-06 21:56:00,
2013-02-06 23:02:00,49.1,37.8,29.79,North,360,10.0,16.0,65,0.00,,,0.11,0,Wunderground v.1.15,2013-02-06 22:02:00,
2013-02-06 23:09:00,49.1,37.8,29.80,North,9,11.0,16.0,65,0.00,,,0.11,0,Wunderground v.1.15,2013-02-06 22:09:00,
2013-02-06 23:16:00,49.2,38.3,29.80,North,360,13.0,27.0,66,0.00,,,0.11,0,Wunderground v.1.15,2013-02-06 22:16:00,
2013-02-06 23:22:00,49.1,38.2,29.79,North,349,12.0,21.0,66,0.00,,,0.11,0,Wunderground v.1.15,2013-02-06 22:22:00,
2013-02-06 23:28:00,49.0,38.1,29.79,NNE,21,14.0,21.0,66,0.00,,,0.11,0,Wunderground v.1.15,2013-02-06 22:28:00,
2013-02-06 23:34:00,49.0,38.5,29.78,North,355,14.0,17.0,67,0.00,,,0.11,0,Wunderground v.1.15,2013-02-06 22:34:00,
2013-02-06 23:40:00,49.0,38.5,29.79,NNW,340,14.0,15.0,67,0.00,,,0.11,0,Wunderground v.1.15,2013-02-06 22:40:00,
2013-02-06 23:46:00,49.1,38.6,29.79,North,355,14.0,18.0,67,0.00,,,0.11,0,Wunderground v.1.15,2013-02-06 22:46:00,
2013-02-06 23:52:00,49.0,38.5,29.78,NNW,336,14.0,14.0,67,0.00,,,0.11,0,Wunderground v.1.15,2013-02-06 22:52:00,
2013-02-06 23:59:00,49.1,38.6,29.79,NNW,344,14.0,14.0,67,0.00,,,0.11,0,Wunderground v.1.15,2013-02-06 22:59:00,